sensor_id;sensor_type;location;lat;lon;timestamp;pressure;altitude;pressure_sealevel;temperature;humidity
15750;BME280;7976;52.526;13.326;2023-02-01T00:00:31;100639.41;;;4.84;100.00
15750;BME280;7976;52.526;13.326;2023-02-01T00:03:00;100642.84;;;4.85;100.00
15750;BME280;7976;52.526;13.326;2023-02-01T00:05:27;100640.25;;;4.85;100.00
15750;BME280;7976;52.526;13.326;2023-02-01T00:07:54;100648.88;;;4.87;100.00
15750;BME280;7976;52.526;13.326;2023-02-01T00:10:22;100648.00;;;4.86;100.00
15750;BME280;7976;52.526;13.326;2023-02-01T00:12:49;100643.72;;;4.84;100.00
15750;BME280;7976;52.526;13.326;2023-02-01T00:15:16;100635.97;;;4.82;100.00
15750;BME280;7976;52.526;13.326;2023-02-01T00:17:42;100648.94;;;4.81;100.00
15750;BME280;7976;52.526;13.326;2023-02-01T00:20:10;100635.16;;;4.79;100.00
15750;BME280;7976;52.526;13.326;2023-02-01T00:22:37;100639.50;;;4.78;100.00
15750;BME280;7976;52.526;13.326;2023-02-01T00:25:05;100640.34;;;4.79;100.00
15750;BME280;7976;52.526;13.326;2023-02-01T00:27:34;100629.97;;;4.79;100.00
15750;BME280;7976;52.526;13.326;2023-02-01T00:30:00;100636.88;;;4.80;100.00
15750;BME280;7976;52.526;13.326;2023-02-01T00:32:27;100637.75;;;4.80;100.00
15750;BME280;7976;52.526;13.326;2023-02-01T00:34:54;100630.84;;;4.79;100.00
15750;BME280;7976;52.526;13.326;2023-02-01T00:37:21;100639.44;;;4.81;100.00
15750;BME280;7976;52.526;13.326;2023-02-01T00:39:48;100637.75;;;4.80;100.00
15750;BME280;7976;52.526;13.326;2023-02-01T00:42:16;100652.47;;;4.78;100.00
15750;BME280;7976;52.526;13.326;2023-02-01T00:44:44;100648.16;;;4.76;100.00
15750;BME280;7976;52.526;13.326;2023-02-01T00:47:11;100656.84;;;4.75;100.00
15750;BME280;7976;52.526;13.326;2023-02-01T00:49:37;100646.50;;;4.73;100.00
15750;BME280;7976;52.526;13.326;2023-02-01T00:52:04;100651.72;;;4.72;99.71
15750;BME280;7976;52.526;13.326;2023-02-01T00:54:32;100658.59;;;4.73;99.44
15750;BME280;7976;52.526;13.326;2023-02-01T00:56:59;100650.78;;;4.74;99.59
15750;BME280;7976;52.526;13.326;2023-02-01T00:59:26;100654.28;;;4.72;99.28
15750;BME280;7976;52.526;13.326;2023-02-01T01:01:55;100657.78;;;4.68;99.10
15750;BME280;7976;52.526;13.326;2023-02-01T01:04:22;100667.34;;;4.64;99.10
15750;BME280;7976;52.526;13.326;2023-02-01T01:06:49;100663.91;;;4.65;98.96
15750;BME280;7976;52.526;13.326;2023-02-01T01:09:16;100657.88;;;4.63;98.88
15750;BME280;7976;52.526;13.326;2023-02-01T01:11:43;100643.22;;;4.61;98.97
15750;BME280;7976;52.526;13.326;2023-02-01T01:14:11;100651.88;;;4.60;98.74
15750;BME280;7976;52.526;13.326;2023-02-01T01:16:37;100654.53;;;4.57;98.81
15750;BME280;7976;52.526;13.326;2023-02-01T01:19:06;100653.66;;;4.56;98.96
15750;BME280;7976;52.526;13.326;2023-02-01T01:21:33;100649.34;;;4.57;98.86
15750;BME280;7976;52.526;13.326;2023-02-01T01:24:00;100633.81;;;4.55;98.74
15750;BME280;7976;52.526;13.326;2023-02-01T01:26:29;100642.44;;;4.54;98.67
15750;BME280;7976;52.526;13.326;2023-02-01T01:28:57;100638.13;;;4.56;98.87
15750;BME280;7976;52.526;13.326;2023-02-01T01:31:25;100630.34;;;4.56;98.79
15750;BME280;7976;52.526;13.326;2023-02-01T01:33:56;100626.06;;;4.55;98.85
15750;BME280;7976;52.526;13.326;2023-02-01T01:36:26;100615.69;;;4.55;98.73
15750;BME280;7976;52.526;13.326;2023-02-01T01:38:53;100630.38;;;4.55;98.86
15750;BME280;7976;52.526;13.326;2023-02-01T01:41:23;100621.69;;;4.56;98.95
15750;BME280;7976;52.526;13.326;2023-02-01T01:43:54;100613.06;;;4.57;98.59
15750;BME280;7976;52.526;13.326;2023-02-01T01:46:26;100622.53;;;4.59;98.66
15750;BME280;7976;52.526;13.326;2023-02-01T01:49:04;100610.41;;;4.61;98.54
15750;BME280;7976;52.526;13.326;2023-02-01T01:51:38;100623.31;;;4.63;98.36
15750;BME280;7976;52.526;13.326;2023-02-01T01:54:14;100600.84;;;4.65;98.15
15750;BME280;7976;52.526;13.326;2023-02-01T01:56:45;100617.22;;;4.68;98.07
15750;BME280;7976;52.526;13.326;2023-02-01T01:59:14;100612.88;;;4.70;97.85
15750;BME280;7976;52.526;13.326;2023-02-01T02:01:42;100604.25;;;4.68;97.61
15750;BME280;7976;52.526;13.326;2023-02-01T02:04:10;100611.06;;;4.72;97.58
15750;BME280;7976;52.526;13.326;2023-02-01T02:06:43;100609.31;;;4.74;97.36
15750;BME280;7976;52.526;13.326;2023-02-01T02:09:14;100618.81;;;4.75;97.24
15750;BME280;7976;52.526;13.326;2023-02-01T02:11:42;100623.97;;;4.77;96.91
15750;BME280;7976;52.526;13.326;2023-02-01T02:14:12;100627.41;;;4.77;96.87
15750;BME280;7976;52.526;13.326;2023-02-01T02:17:15;100631.72;;;4.78;96.70
15750;BME280;7976;52.526;13.326;2023-02-01T02:20:30;100623.03;;;4.81;96.20
15750;BME280;7976;52.526;13.326;2023-02-01T02:23:39;100631.69;;;4.81;96.04
15750;BME280;7976;52.526;13.326;2023-02-01T02:26:39;100619.59;;;4.82;95.39
15750;BME280;7976;52.526;13.326;2023-02-01T02:33:36;100626.44;;;4.84;95.32
15750;BME280;7976;52.526;13.326;2023-02-01T02:36:11;100613.47;;;4.84;95.24
15750;BME280;7976;52.526;13.326;2023-02-01T02:38:52;100620.38;;;4.87;94.88
15750;BME280;7976;52.526;13.326;2023-02-01T02:41:31;100615.16;;;4.88;94.86
15750;BME280;7976;52.526;13.326;2023-02-01T02:44:26;100607.28;;;4.93;94.69
15750;BME280;7976;52.526;13.326;2023-02-01T02:47:23;100610.69;;;4.96;94.71
15750;BME280;7976;52.526;13.326;2023-02-01T02:50:03;100602.06;;;4.96;94.61
15750;BME280;7976;52.526;13.326;2023-02-01T02:52:57;100611.59;;;4.95;94.38
15750;BME280;7976;52.526;13.326;2023-02-01T02:55:45;100604.66;;;4.96;94.75
15750;BME280;7976;52.526;13.326;2023-02-01T02:58:13;100597.72;;;4.96;94.39
15750;BME280;7976;52.526;13.326;2023-02-01T03:01:01;100606.34;;;4.98;94.39
15750;BME280;7976;52.526;13.326;2023-02-01T03:03:47;100606.34;;;4.98;94.04
15750;BME280;7976;52.526;13.326;2023-02-01T03:06:38;100592.50;;;4.99;93.73
15750;BME280;7976;52.526;13.326;2023-02-01T03:09:13;100589.91;;;4.99;93.89
15750;BME280;7976;52.526;13.326;2023-02-01T03:11:47;100589.03;;;5.00;93.64
15750;BME280;7976;52.526;13.326;2023-02-01T03:14:37;100594.22;;;5.00;93.47
15750;BME280;7976;52.526;13.326;2023-02-01T03:17:13;100581.19;;;5.03;93.54
15750;BME280;7976;52.526;13.326;2023-02-01T03:19:45;100568.25;;;5.03;93.47
15750;BME280;7976;52.526;13.326;2023-02-01T03:22:20;100573.41;;;5.03;93.29
15750;BME280;7976;52.526;13.326;2023-02-01T03:24:53;100559.56;;;5.04;92.88
15750;BME280;7976;52.526;13.326;2023-02-01T03:27:26;100564.75;;;5.04;92.80
15750;BME280;7976;52.526;13.326;2023-02-01T03:30:01;100557.84;;;5.05;92.49
15750;BME280;7976;52.526;13.326;2023-02-01T03:32:32;100550.91;;;5.05;92.72
15750;BME280;7976;52.526;13.326;2023-02-01T03:35:26;100555.22;;;5.06;92.49
15750;BME280;7976;52.526;13.326;2023-02-01T03:38:04;100552.63;;;5.06;92.67
15750;BME280;7976;52.526;13.326;2023-02-01T03:40:39;100540.56;;;5.05;92.50
15750;BME280;7976;52.526;13.326;2023-02-01T03:43:14;100539.66;;;5.06;92.65
15750;BME280;7976;52.526;13.326;2023-02-01T03:45:49;100532.78;;;5.05;92.46
15750;BME280;7976;52.526;13.326;2023-02-01T03:48:18;100534.47;;;5.06;92.28
15750;BME280;7976;52.526;13.326;2023-02-01T03:50:52;100538.75;;;5.07;92.37
15750;BME280;7976;52.526;13.326;2023-02-01T03:53:24;100544.78;;;5.09;92.42
15750;BME280;7976;52.526;13.326;2023-02-01T03:55:53;100539.56;;;5.11;92.14
15750;BME280;7976;52.526;13.326;2023-02-01T03:58:23;100538.69;;;5.12;91.95
15750;BME280;7976;52.526;13.326;2023-02-01T04:00:53;100542.09;;;5.16;92.18
15750;BME280;7976;52.526;13.326;2023-02-01T04:03:22;100538.53;;;5.20;92.16
15750;BME280;7976;52.526;13.326;2023-02-01T04:05:52;100545.47;;;5.21;91.92
15750;BME280;7976;52.526;13.326;2023-02-01T04:08:24;100542.75;;;5.25;91.75
15750;BME280;7976;52.526;13.326;2023-02-01T04:10:51;100539.25;;;5.28;91.64
15750;BME280;7976;52.526;13.326;2023-02-01T04:13:18;100537.47;;;5.30;91.60
15750;BME280;7976;52.526;13.326;2023-02-01T04:15:46;100538.31;;;5.32;91.21
15750;BME280;7976;52.526;13.326;2023-02-01T04:18:15;100538.25;;;5.35;91.10
15750;BME280;7976;52.526;13.326;2023-02-01T04:20:43;100546.91;;;5.35;90.97
15750;BME280;7976;52.526;13.326;2023-02-01T04:23:10;100542.50;;;5.39;90.80
15750;BME280;7976;52.526;13.326;2023-02-01T04:25:39;100539.84;;;5.42;90.75
15750;BME280;7976;52.526;13.326;2023-02-01T04:28:06;100545.88;;;5.44;90.46
15750;BME280;7976;52.526;13.326;2023-02-01T04:30:33;100536.31;;;5.46;90.45
15750;BME280;7976;52.526;13.326;2023-02-01T04:33:02;100527.63;;;5.47;90.19
15750;BME280;7976;52.526;13.326;2023-02-01T04:35:32;100525.00;;;5.48;89.88
15750;BME280;7976;52.526;13.326;2023-02-01T04:37:59;100534.47;;;5.51;90.12
15750;BME280;7976;52.526;13.326;2023-02-01T04:40:26;100530.13;;;5.51;89.79
15750;BME280;7976;52.526;13.326;2023-02-01T04:42:54;100524.06;;;5.52;89.70
15750;BME280;7976;52.526;13.326;2023-02-01T04:45:21;100532.66;;;5.56;89.60
15750;BME280;7976;52.526;13.326;2023-02-01T04:47:48;100521.38;;;5.57;89.21
15750;BME280;7976;52.526;13.326;2023-02-01T04:50:16;100521.31;;;5.60;89.26
15750;BME280;7976;52.526;13.326;2023-02-01T04:52:42;100522.09;;;5.63;89.15
15750;BME280;7976;52.526;13.326;2023-02-01T04:55:10;100528.13;;;5.65;89.28
15750;BME280;7976;52.526;13.326;2023-02-01T04:57:39;100517.69;;;5.67;89.22
15750;BME280;7976;52.526;13.326;2023-02-01T05:00:10;100508.16;;;5.69;89.08
15750;BME280;7976;52.526;13.326;2023-02-01T05:02:38;100505.56;;;5.69;88.87
15750;BME280;7976;52.526;13.326;2023-02-01T05:05:06;100503.78;;;5.71;88.92
15750;BME280;7976;52.526;13.326;2023-02-01T05:07:34;100489.00;;;5.73;88.89
15750;BME280;7976;52.526;13.326;2023-02-01T05:10:02;100493.28;;;5.75;88.80
15750;BME280;7976;52.526;13.326;2023-02-01T05:12:29;100493.28;;;5.75;88.53
15750;BME280;7976;52.526;13.326;2023-02-01T05:15:31;100488.97;;;5.76;88.17
15750;BME280;7976;52.526;13.326;2023-02-01T05:18:01;100490.66;;;5.77;88.25
15750;BME280;7976;52.526;13.326;2023-02-01T05:20:28;100481.97;;;5.78;87.97
15750;BME280;7976;52.526;13.326;2023-02-01T05:22:55;100494.09;;;5.79;88.19
15750;BME280;7976;52.526;13.326;2023-02-01T05:25:24;100492.31;;;5.81;88.07
15750;BME280;7976;52.526;13.326;2023-02-01T05:27:53;100492.31;;;5.81;87.68
15750;BME280;7976;52.526;13.326;2023-02-01T05:30:20;100477.56;;;5.81;87.70
15750;BME280;7976;52.526;13.326;2023-02-01T05:32:51;100478.44;;;5.82;87.27
15750;BME280;7976;52.526;13.326;2023-02-01T05:35:19;100478.44;;;5.83;87.13
15750;BME280;7976;52.526;13.326;2023-02-01T05:37:46;100481.88;;;5.84;87.26
15750;BME280;7976;52.526;13.326;2023-02-01T05:40:13;100485.31;;;5.86;87.09
15750;BME280;7976;52.526;13.326;2023-02-01T05:42:40;100486.09;;;5.88;87.15
15750;BME280;7976;52.526;13.326;2023-02-01T05:45:09;100467.97;;;5.86;86.87
15750;BME280;7976;52.526;13.326;2023-02-01T05:47:36;100466.25;;;5.87;86.99
15750;BME280;7976;52.526;13.326;2023-02-01T05:50:09;100458.41;;;5.88;87.05
15750;BME280;7976;52.526;13.326;2023-02-01T05:52:39;100468.84;;;5.87;86.83
15750;BME280;7976;52.526;13.326;2023-02-01T05:55:06;100458.50;;;5.85;86.71
15750;BME280;7976;52.526;13.326;2023-02-01T05:57:33;100455.03;;;5.85;86.67
15750;BME280;7976;52.526;13.326;2023-02-01T06:00:02;100460.19;;;5.86;86.64
15750;BME280;7976;52.526;13.326;2023-02-01T06:02:38;100458.44;;;5.87;86.58
15750;BME280;7976;52.526;13.326;2023-02-01T06:05:13;100447.28;;;5.83;86.54
15750;BME280;7976;52.526;13.326;2023-02-01T06:07:43;100455.84;;;5.87;86.35
15750;BME280;7976;52.526;13.326;2023-02-01T06:10:10;100455.81;;;5.88;86.55
15750;BME280;7976;52.526;13.326;2023-02-01T06:12:38;100454.16;;;5.86;86.69
15750;BME280;7976;52.526;13.326;2023-02-01T06:15:06;100452.44;;;5.85;86.46
15750;BME280;7976;52.526;13.326;2023-02-01T06:17:33;100447.28;;;5.82;86.58
15750;BME280;7976;52.526;13.326;2023-02-01T06:20:00;100455.16;;;5.79;86.75
15750;BME280;7976;52.526;13.326;2023-02-01T06:22:29;100454.31;;;5.77;86.91
15750;BME280;7976;52.526;13.326;2023-02-01T06:24:56;100450.06;;;5.74;87.55
15750;BME280;7976;52.526;13.326;2023-02-01T06:27:25;100446.69;;;5.71;87.52
15750;BME280;7976;52.526;13.326;2023-02-01T06:29:52;100449.31;;;5.68;87.67
15750;BME280;7976;52.526;13.326;2023-02-01T06:32:21;100453.72;;;5.66;87.89
15750;BME280;7976;52.526;13.326;2023-02-01T06:34:48;100454.66;;;5.62;88.18
15750;BME280;7976;52.526;13.326;2023-02-01T06:37:15;100440.91;;;5.58;88.55
15750;BME280;7976;52.526;13.326;2023-02-01T06:39:43;100447.88;;;5.55;88.91
15750;BME280;7976;52.526;13.326;2023-02-01T06:42:10;100445.34;;;5.53;89.05
15750;BME280;7976;52.526;13.326;2023-02-01T06:44:37;100434.09;;;5.53;89.30
15750;BME280;7976;52.526;13.326;2023-02-01T06:47:04;100444.47;;;5.53;89.38
15750;BME280;7976;52.526;13.326;2023-02-01T06:49:31;100428.91;;;5.53;89.48
15750;BME280;7976;52.526;13.326;2023-02-01T06:51:58;100422.84;;;5.54;89.54
15750;BME280;7976;52.526;13.326;2023-02-01T06:54:26;100424.50;;;5.56;89.68
15750;BME280;7976;52.526;13.326;2023-02-01T06:56:55;100419.28;;;5.58;89.25
15750;BME280;7976;52.526;13.326;2023-02-01T06:59:22;100422.66;;;5.61;89.25
15750;BME280;7976;52.526;13.326;2023-02-01T07:01:49;100414.00;;;5.62;89.06
15750;BME280;7976;52.526;13.326;2023-02-01T07:04:15;100415.66;;;5.65;88.79
15750;BME280;7976;52.526;13.326;2023-02-01T07:06:42;100419.03;;;5.68;88.85
15750;BME280;7976;52.526;13.326;2023-02-01T07:09:09;100413.00;;;5.68;88.73
15750;BME280;7976;52.526;13.326;2023-02-01T07:11:37;100404.34;;;5.69;88.42
15750;BME280;7976;52.526;13.326;2023-02-01T07:14:10;100422.47;;;5.70;88.29
15750;BME280;7976;52.526;13.326;2023-02-01T07:16:37;100402.56;;;5.71;88.37
15750;BME280;7976;52.526;13.326;2023-02-01T07:19:05;100402.56;;;5.71;88.44
15750;BME280;7976;52.526;13.326;2023-02-01T07:21:32;100403.44;;;5.70;88.30
15750;BME280;7976;52.526;13.326;2023-02-01T07:23:59;100397.41;;;5.68;88.23
15750;BME280;7976;52.526;13.326;2023-02-01T07:26:26;100394.91;;;5.65;88.28
15750;BME280;7976;52.526;13.326;2023-02-01T07:28:52;100384.56;;;5.63;88.56
15750;BME280;7976;52.526;13.326;2023-02-01T07:31:20;100391.53;;;5.61;88.54
15750;BME280;7976;52.526;13.326;2023-02-01T07:33:48;100379.38;;;5.63;88.85
15750;BME280;7976;52.526;13.326;2023-02-01T07:36:18;100380.16;;;5.67;88.71
15750;BME280;7976;52.526;13.326;2023-02-01T07:38:46;100377.47;;;5.70;88.91
15750;BME280;7976;52.526;13.326;2023-02-01T07:41:14;100389.59;;;5.71;88.48
15750;BME280;7976;52.526;13.326;2023-02-01T07:43:41;100383.56;;;5.69;88.84
15750;BME280;7976;52.526;13.326;2023-02-01T07:46:10;100393.16;;;5.65;88.80
15750;BME280;7976;52.526;13.326;2023-02-01T07:48:38;100388.13;;;5.58;88.92
15750;BME280;7976;52.526;13.326;2023-02-01T07:51:08;100387.50;;;5.48;89.50
15750;BME280;7976;52.526;13.326;2023-02-01T07:53:36;100389.50;;;5.37;89.77
15750;BME280;7976;52.526;13.326;2023-02-01T07:56:10;100384.50;;;5.28;90.57
15750;BME280;7976;52.526;13.326;2023-02-01T07:58:37;100390.78;;;5.17;90.82
15750;BME280;7976;52.526;13.326;2023-02-01T08:01:04;100385.03;;;5.02;91.63
15750;BME280;7976;52.526;13.326;2023-02-01T08:03:48;100386.13;;;4.91;92.18
15750;BME280;7976;52.526;13.326;2023-02-01T08:06:15;100385.41;;;4.84;92.96
15750;BME280;7976;52.526;13.326;2023-02-01T08:08:42;100382.06;;;4.79;93.60
15750;BME280;7976;52.526;13.326;2023-02-01T08:11:11;100387.28;;;4.78;94.21
15750;BME280;7976;52.526;13.326;2023-02-01T08:13:38;100386.47;;;4.74;94.62
15750;BME280;7976;52.526;13.326;2023-02-01T08:16:07;100383.94;;;4.71;94.94
15750;BME280;7976;52.526;13.326;2023-02-01T08:18:36;100390.09;;;4.66;95.30
15750;BME280;7976;52.526;13.326;2023-02-01T08:21:07;100387.59;;;4.61;95.89
15750;BME280;7976;52.526;13.326;2023-02-01T08:23:36;100385.06;;;4.58;96.40
15750;BME280;7976;52.526;13.326;2023-02-01T08:26:10;100387.59;;;4.61;96.87
15750;BME280;7976;52.526;13.326;2023-02-01T08:28:39;100386.81;;;4.58;96.85
15750;BME280;7976;52.526;13.326;2023-02-01T08:31:09;100386.88;;;4.55;97.35
15750;BME280;7976;52.526;13.326;2023-02-01T08:33:36;100390.34;;;4.52;97.60
15750;BME280;7976;52.526;13.326;2023-02-01T08:36:07;100391.19;;;4.54;97.89
15750;BME280;7976;52.526;13.326;2023-02-01T08:38:35;100389.44;;;4.56;98.12
15750;BME280;7976;52.526;13.326;2023-02-01T08:41:08;100399.78;;;4.56;98.19
15750;BME280;7976;52.526;13.326;2023-02-01T08:43:35;100404.13;;;4.54;98.68
15750;BME280;7976;52.526;13.326;2023-02-01T08:46:03;100400.66;;;4.57;99.02
15750;BME280;7976;52.526;13.326;2023-02-01T08:48:31;100395.47;;;4.57;99.20
15750;BME280;7976;52.526;13.326;2023-02-01T08:51:01;100398.88;;;4.57;99.35
15750;BME280;7976;52.526;13.326;2023-02-01T08:53:30;100398.03;;;4.58;99.57
15750;BME280;7976;52.526;13.326;2023-02-01T08:55:56;100396.31;;;4.57;99.99
15750;BME280;7976;52.526;13.326;2023-02-01T08:58:23;100416.16;;;4.58;99.97
15750;BME280;7976;52.526;13.326;2023-02-01T09:00:50;100416.13;;;4.60;100.00
15750;BME280;7976;52.526;13.326;2023-02-01T09:03:17;100423.00;;;4.61;100.00
15750;BME280;7976;52.526;13.326;2023-02-01T09:05:44;100416.94;;;4.63;100.00
15750;BME280;7976;52.526;13.326;2023-02-01T09:08:12;100414.34;;;4.63;100.00
15750;BME280;7976;52.526;13.326;2023-02-01T09:10:41;100418.63;;;4.64;100.00
15750;BME280;7976;52.526;13.326;2023-02-01T09:13:08;100425.50;;;4.67;100.00
15750;BME280;7976;52.526;13.326;2023-02-01T09:15:37;100416.81;;;4.69;100.00
15750;BME280;7976;52.526;13.326;2023-02-01T09:18:04;100419.38;;;4.71;100.00
15750;BME280;7976;52.526;13.326;2023-02-01T09:20:31;100439.13;;;4.76;100.00
15750;BME280;7976;52.526;13.326;2023-02-01T09:22:57;100443.34;;;4.82;100.00
15750;BME280;7976;52.526;13.326;2023-02-01T09:25:25;100440.78;;;4.80;100.00
15750;BME280;7976;52.526;13.326;2023-02-01T09:27:54;100455.47;;;4.80;100.00
15750;BME280;7976;52.526;13.326;2023-02-01T09:30:21;100445.97;;;4.80;100.00
15750;BME280;7976;52.526;13.326;2023-02-01T09:32:47;100446.78;;;4.82;100.00
15750;BME280;7976;52.526;13.326;2023-02-01T09:35:14;100445.84;;;4.86;100.00
15750;BME280;7976;52.526;13.326;2023-02-01T09:37:41;100459.66;;;4.88;100.00
15750;BME280;7976;52.526;13.326;2023-02-01T09:40:14;100455.25;;;4.92;100.00
15750;BME280;7976;52.526;13.326;2023-02-01T09:43:09;100464.72;;;4.93;100.00
15750;BME280;7976;52.526;13.326;2023-02-01T09:45:49;100462.13;;;4.93;100.00
15750;BME280;7976;52.526;13.326;2023-02-01T09:48:23;100474.13;;;4.98;100.00
15750;BME280;7976;52.526;13.326;2023-02-01T09:50:55;100474.06;;;5.01;100.00
15750;BME280;7976;52.526;13.326;2023-02-01T09:53:27;100469.78;;;5.00;100.00
15750;BME280;7976;52.526;13.326;2023-02-01T09:56:00;100468.91;;;5.00;100.00
15750;BME280;7976;52.526;13.326;2023-02-01T09:58:35;100477.56;;;4.99;100.00
15750;BME280;7976;52.526;13.326;2023-02-01T10:01:12;100482.78;;;4.97;100.00
15750;BME280;7976;52.526;13.326;2023-02-01T10:03:39;100486.22;;;4.98;100.00
15750;BME280;7976;52.526;13.326;2023-02-01T10:06:25;100488.06;;;4.93;100.00
15750;BME280;7976;52.526;13.326;2023-02-01T10:09:18;100474.34;;;4.86;100.00
15750;BME280;7976;52.526;13.326;2023-02-01T10:12:04;100477.88;;;4.82;100.00
15750;BME280;7976;52.526;13.326;2023-02-01T10:14:53;100479.63;;;4.82;100.00
15750;BME280;7976;52.526;13.326;2023-02-01T10:17:37;100489.06;;;4.84;100.00
15750;BME280;7976;52.526;13.326;2023-02-01T10:20:18;100481.34;;;4.83;100.00
15750;BME280;7976;52.526;13.326;2023-02-01T10:23:01;100482.19;;;4.83;100.00
15750;BME280;7976;52.526;13.326;2023-02-01T10:25:36;100489.06;;;4.84;100.00
15750;BME280;7976;52.526;13.326;2023-02-01T10:28:04;100476.09;;;4.86;100.00
15750;BME280;7976;52.526;13.326;2023-02-01T10:30:40;100492.50;;;4.86;100.00
15750;BME280;7976;52.526;13.326;2023-02-01T10:33:16;100489.78;;;4.92;100.00
15750;BME280;7976;52.526;13.326;2023-02-01T10:35:45;100478.41;;;5.01;100.00
15750;BME280;7976;52.526;13.326;2023-02-01T10:38:24;100478.25;;;5.08;100.00
15750;BME280;7976;52.526;13.326;2023-02-01T10:40:55;100481.69;;;5.10;100.00
15750;BME280;7976;52.526;13.326;2023-02-01T10:43:26;100498.09;;;5.09;100.00
15750;BME280;7976;52.526;13.326;2023-02-01T10:45:54;100503.31;;;5.08;100.00
15750;BME280;7976;52.526;13.326;2023-02-01T10:48:21;100494.78;;;5.03;100.00
15750;BME280;7976;52.526;13.326;2023-02-01T10:50:56;100483.75;;;4.93;100.00
15750;BME280;7976;52.526;13.326;2023-02-01T10:53:31;100491.63;;;4.86;100.00
15750;BME280;7976;52.526;13.326;2023-02-01T10:56:07;100487.38;;;4.83;100.00
15750;BME280;7976;52.526;13.326;2023-02-01T10:58:42;100487.34;;;4.85;100.00
15750;BME280;7976;52.526;13.326;2023-02-01T11:01:17;100495.13;;;4.85;100.00
15750;BME280;7976;52.526;13.326;2023-02-01T11:03:53;100476.88;;;4.89;100.00
15750;BME280;7976;52.526;13.326;2023-02-01T11:06:28;100481.91;;;4.98;100.00
15750;BME280;7976;52.526;13.326;2023-02-01T11:08:58;100473.97;;;5.06;100.00
15750;BME280;7976;52.526;13.326;2023-02-01T11:11:28;100467.00;;;5.09;100.00
15750;BME280;7976;52.526;13.326;2023-02-01T11:14:15;100469.53;;;5.12;100.00
15750;BME280;7976;52.526;13.326;2023-02-01T11:16:49;100473.78;;;5.17;100.00
15750;BME280;7976;52.526;13.326;2023-02-01T11:19:17;100465.84;;;5.23;100.00
15750;BME280;7976;52.526;13.326;2023-02-01T11:21:49;100472.69;;;5.28;100.00
15750;BME280;7976;52.526;13.326;2023-02-01T11:24:23;100474.41;;;5.28;100.00
15750;BME280;7976;52.526;13.326;2023-02-01T11:26:54;100464.00;;;5.31;100.00
15750;BME280;7976;52.526;13.326;2023-02-01T11:29:24;100454.34;;;5.37;100.00
15750;BME280;7976;52.526;13.326;2023-02-01T11:31:58;100455.75;;;5.52;100.00
15750;BME280;7976;52.526;13.326;2023-02-01T11:34:33;100445.06;;;5.65;100.00
15750;BME280;7976;52.526;13.326;2023-02-01T11:37:03;100444.03;;;5.74;100.00
15750;BME280;7976;52.526;13.326;2023-02-01T11:39:33;100429.22;;;5.77;100.00
15750;BME280;7976;52.526;13.326;2023-02-01T11:42:05;100432.63;;;5.81;100.00
15750;BME280;7976;52.526;13.326;2023-02-01T11:44:40;100426.47;;;5.85;100.00
15750;BME280;7976;52.526;13.326;2023-02-01T11:47:25;100427.31;;;5.87;100.00
15750;BME280;7976;52.526;13.326;2023-02-01T11:49:55;100419.34;;;5.93;100.00
15750;BME280;7976;52.526;13.326;2023-02-01T11:52:40;100402.69;;;6.01;100.00
15750;BME280;7976;52.526;13.326;2023-02-01T11:55:55;100406.75;;;6.13;100.00
15750;BME280;7976;52.526;13.326;2023-02-01T11:59:08;100402.16;;;6.24;100.00
15750;BME280;7976;52.526;13.326;2023-02-01T12:05:08;100398.34;;;6.37;100.00
15750;BME280;7976;52.526;13.326;2023-02-01T12:07:58;100392.19;;;6.41;100.00
15750;BME280;7976;52.526;13.326;2023-02-01T12:10:39;100394.75;;;6.43;100.00
15750;BME280;7976;52.526;13.326;2023-02-01T12:13:22;100379.16;;;6.43;100.00
15750;BME280;7976;52.526;13.326;2023-02-01T12:16:02;100393.78;;;6.45;100.00
15750;BME280;7976;52.526;13.326;2023-02-01T12:18:57;100386.00;;;6.45;100.00
15750;BME280;7976;52.526;13.326;2023-02-01T12:21:58;100379.16;;;6.43;100.00
15750;BME280;7976;52.526;13.326;2023-02-01T12:25:13;100372.34;;;6.37;99.43
15750;BME280;7976;52.526;13.326;2023-02-01T12:28:08;100373.41;;;6.30;99.27
15750;BME280;7976;52.526;13.326;2023-02-01T12:34:23;100356.34;;;6.20;98.45
15750;BME280;7976;52.526;13.326;2023-02-01T12:37:07;100357.25;;;6.19;98.53
15750;BME280;7976;52.526;13.326;2023-02-01T12:39:44;100347.75;;;6.18;98.35
15750;BME280;7976;52.526;13.326;2023-02-01T12:42:22;100339.94;;;6.19;98.33
15750;BME280;7976;52.526;13.326;2023-02-01T12:44:55;100338.16;;;6.20;98.33
15750;BME280;7976;52.526;13.326;2023-02-01T12:47:31;100332.03;;;6.24;98.07
15750;BME280;7976;52.526;13.326;2023-02-01T12:50:04;100330.16;;;6.29;97.49
15750;BME280;7976;52.526;13.326;2023-02-01T12:52:40;100317.84;;;6.35;97.43
15750;BME280;7976;52.526;13.326;2023-02-01T12:55:20;100321.22;;;6.39;96.95
15750;BME280;7976;52.526;13.326;2023-02-01T12:57:53;100318.44;;;6.45;96.51
15750;BME280;7976;52.526;13.326;2023-02-01T13:00:31;100307.06;;;6.49;96.22
15750;BME280;7976;52.526;13.326;2023-02-01T13:03:05;100309.50;;;6.55;95.89
15750;BME280;7976;52.526;13.326;2023-02-01T13:05:47;100306.75;;;6.61;95.25
15750;BME280;7976;52.526;13.326;2023-02-01T13:08:22;100328.31;;;6.65;94.91
15750;BME280;7976;52.526;13.326;2023-02-01T13:10:57;100329.91;;;6.69;94.24
15750;BME280;7976;52.526;13.326;2023-02-01T13:13:37;100334.19;;;6.71;93.50
15750;BME280;7976;52.526;13.326;2023-02-01T13:16:18;100337.66;;;6.70;93.08
15750;BME280;7976;52.526;13.326;2023-02-01T13:18:54;100349.88;;;6.67;92.60
15750;BME280;7976;52.526;13.326;2023-02-01T13:21:30;100347.31;;;6.65;92.08
15750;BME280;7976;52.526;13.326;2023-02-01T13:23:59;100338.69;;;6.65;92.10
15750;BME280;7976;52.526;13.326;2023-02-01T13:26:26;100349.06;;;6.66;91.66
15750;BME280;7976;52.526;13.326;2023-02-01T13:28:58;100345.59;;;6.66;91.24
15750;BME280;7976;52.526;13.326;2023-02-01T13:31:50;100345.53;;;6.67;91.30
15750;BME280;7976;52.526;13.326;2023-02-01T13:34:53;100342.19;;;6.64;90.84
15750;BME280;7976;52.526;13.326;2023-02-01T13:37:57;100327.53;;;6.61;90.67